Time;durP1;ratioP1;P1;durP2;ratioP2;P2;SDS_P1;SDS_P2;PMS_P1;PMS_P2;Temp;Humidity;BMP_temperature;BMP_pressure;BME280_temperature;BME280_humidity;BME280_pressure;Samples;Min_cycle;Max_cycle;Signal;HPM_P1;HPM_P2
2023/08/16 00:01:05;;;;;;;1.77;1.60;;;22.00;99.90;;;;;;5093950;28;20333;-78
2023/08/16 00:03:32;;;;;;;2.33;2.17;;;22.00;99.90;;;;;;5097676;28;20233;-78
2023/08/16 00:06:08;;;;;;;1.90;1.80;;;21.90;99.90;;;;;;5093640;28;20528;-77
2023/08/16 00:08:37;;;;;;;2.20;2.00;;;21.90;99.90;;;;;;5096198;28;20208;-77
2023/08/16 00:11:04;;;;;;;1.90;1.80;;;21.90;99.90;;;;;;5096825;28;20203;-78
2023/08/16 00:13:32;;;;;;;1.83;1.73;;;21.90;99.90;;;;;;5099304;28;20265;-78
2023/08/16 00:15:59;;;;;;;1.80;1.70;;;21.90;99.90;;;;;;5099584;28;20270;-78
2023/08/16 00:18:26;;;;;;;2.38;2.17;;;22.00;99.90;;;;;;5101032;27;20198;-80
2023/08/16 00:20:53;;;;;;;1.80;1.70;;;22.00;99.90;;;;;;5099812;28;20231;-76
2023/08/16 00:23:19;;;;;;;2.20;2.00;;;22.10;99.90;;;;;;5101184;28;20691;-80
2023/08/16 00:25:48;;;;;;;2.20;2.10;;;22.10;99.90;;;;;;5097007;28;20251;-79
2023/08/16 00:28:15;;;;;;;2.63;2.42;;;22.10;99.90;;;;;;5095158;28;20659;-79
2023/08/16 00:30:42;;;;;;;2.50;2.30;;;21.80;99.90;;;;;;5097869;28;20228;-78
2023/08/16 00:33:09;;;;;;;4.22;2.60;;;21.50;99.90;;;;;;5095645;28;20276;-78
2023/08/16 00:35:36;;;;;;;2.67;2.58;;;21.30;99.90;;;;;;5097966;28;20256;-78
2023/08/16 00:38:02;;;;;;;2.75;2.55;;;21.20;99.90;;;;;;5098616;28;20569;-81
2023/08/16 00:40:30;;;;;;;2.80;2.60;;;21.20;99.90;;;;;;5097767;28;20247;-79
2023/08/16 00:43:01;;;;;;;3.55;2.92;;;21.20;99.90;;;;;;5101040;27;20193;-78
2023/08/16 00:45:29;;;;;;;2.65;2.47;;;21.20;99.90;;;;;;5096718;28;20695;-77
2023/08/16 00:47:56;;;;;;;2.40;2.30;;;21.20;99.90;;;;;;5097839;28;20220;-80
2023/08/16 00:50:24;;;;;;;2.92;2.72;;;21.20;99.90;;;;;;5103277;28;20296;-77
2023/08/16 00:52:52;;;;;;;2.85;2.63;;;21.40;99.90;;;;;;5098580;28;20228;-77
2023/08/16 00:55:19;;;;;;;2.72;2.53;;;21.40;99.90;;;;;;5093168;28;20758;-78
2023/08/16 00:57:46;;;;;;;3.50;3.03;;;21.40;99.90;;;;;;5095869;28;20305;-76
2023/08/16 01:00:15;;;;;;;4.30;3.05;;;21.50;99.90;;;;;;5094614;28;20212;-78
2023/08/16 01:02:42;;;;;;;2.75;2.55;;;21.50;99.90;;;;;;5094982;28;20289;-78
2023/08/16 01:05:09;;;;;;;3.28;2.97;;;21.60;99.90;;;;;;5106750;28;20223;-78
2023/08/16 01:07:36;;;;;;;3.15;2.95;;;21.60;99.90;;;;;;5094175;28;20204;-78
2023/08/16 01:10:10;;;;;;;2.45;2.25;;;21.70;99.90;;;;;;5099672;28;20644;-78
2023/08/16 01:12:44;;;;;;;2.78;2.58;;;21.60;99.90;;;;;;5099470;28;20219;-78
2023/08/16 01:15:17;;;;;;;2.53;2.33;;;21.60;99.90;;;;;;5098759;28;20221;-78
2023/08/16 01:17:45;;;;;;;2.80;2.60;;;21.50;99.90;;;;;;5103075;28;20228;-78
2023/08/16 01:20:13;;;;;;;2.70;2.50;;;21.30;99.90;;;;;;5099495;28;20193;-78
2023/08/16 01:22:51;;;;;;;2.72;2.53;;;21.40;99.90;;;;;;5104568;28;20208;-78
2023/08/16 01:25:34;;;;;;;2.90;2.70;;;21.20;99.90;;;;;;5103448;28;20270;-77
2023/08/16 01:28:03;;;;;;;3.08;2.80;;;21.20;99.90;;;;;;5101608;28;20197;-77
2023/08/16 01:30:31;;;;;;;3.30;3.00;;;21.20;99.90;;;;;;5101889;28;20221;-78
2023/08/16 01:33:07;;;;;;;2.70;2.50;;;21.20;99.90;;;;;;5102174;28;20201;-77
2023/08/16 01:35:35;;;;;;;2.75;2.55;;;21.20;99.90;;;;;;5103414;28;20622;-77
2023/08/16 01:38:02;;;;;;;2.97;2.78;;;21.30;99.90;;;;;;5106555;28;20288;-78
2023/08/16 01:40:31;;;;;;;2.35;2.17;;;21.30;99.90;;;;;;5111018;28;20242;-77
2023/08/16 01:43:00;;;;;;;2.65;2.55;;;21.30;99.90;;;;;;5104001;27;20205;-78
2023/08/16 01:45:28;;;;;;;2.92;2.72;;;21.20;99.90;;;;;;5102293;28;20278;-78
2023/08/16 01:47:58;;;;;;;3.95;2.60;;;21.20;99.90;;;;;;5113788;28;20284;-79
2023/08/16 01:50:25;;;;;;;3.25;2.95;;;21.30;99.90;;;;;;5109121;28;20244;-77
2023/08/16 01:52:53;;;;;;;3.50;2.60;;;21.20;99.90;;;;;;5103547;28;20205;-78
2023/08/16 01:55:20;;;;;;;3.35;3.15;;;21.20;99.90;;;;;;5099549;28;20748;-79
2023/08/16 01:57:47;;;;;;;2.78;2.50;;;21.30;99.90;;;;;;5100777;28;20202;-79
2023/08/16 02:00:15;;;;;;;4.30;2.90;;;21.40;99.90;;;;;;5105275;27;20194;-77
2023/08/16 02:02:43;;;;;;;2.90;2.70;;;21.40;99.90;;;;;;5099798;28;20197;-78
2023/08/16 02:05:10;;;;;;;2.80;2.60;;;21.40;99.90;;;;;;5101408;28;20218;-79
2023/08/16 02:07:37;;;;;;;2.83;2.63;;;21.30;99.90;;;;;;5108170;28;20201;-79
2023/08/16 02:10:05;;;;;;;2.83;2.63;;;21.30;99.90;;;;;;5109600;28;20255;-77
2023/08/16 02:12:32;;;;;;;2.58;2.47;;;21.20;99.90;;;;;;5103141;28;20221;-78
2023/08/16 02:14:59;;;;;;;2.63;2.25;;;21.20;99.90;;;;;;5100937;28;20256;-78
2023/08/16 02:17:26;;;;;;;3.08;2.78;;;21.20;99.90;;;;;;5101236;28;20738;-77
2023/08/16 02:19:54;;;;;;;3.17;2.88;;;21.40;99.90;;;;;;5100578;28;20242;-78
2023/08/16 02:22:23;;;;;;;2.33;2.17;;;21.30;99.90;;;;;;5104723;28;20229;-77
2023/08/16 02:24:50;;;;;;;3.17;2.88;;;21.30;99.90;;;;;;5106051;28;20221;-77
2023/08/16 02:27:17;;;;;;;2.53;2.33;;;21.30;99.90;;;;;;5103593;28;20201;-77
2023/08/16 02:29:44;;;;;;;2.58;2.38;;;21.30;99.90;;;;;;5104737;28;20763;-78
2023/08/16 02:32:11;;;;;;;2.67;2.47;;;21.20;99.90;;;;;;5102424;27;20225;-78
2023/08/16 02:34:38;;;;;;;2.40;2.25;;;21.20;99.90;;;;;;5096354;28;20302;-77
2023/08/16 02:37:06;;;;;;;2.42;2.25;;;21.20;99.90;;;;;;5104519;28;20203;-79
2023/08/16 02:39:33;;;;;;;2.95;2.75;;;21.10;99.90;;;;;;5095319;28;20668;-78
2023/08/16 02:42:00;;;;;;;2.95;2.15;;;21.20;99.90;;;;;;5107594;28;20226;-78
2023/08/16 02:44:27;;;;;;;2.30;2.10;;;21.20;99.90;;;;;;5107588;28;20778;-79
2023/08/16 02:46:54;;;;;;;2.45;2.28;;;21.20;99.90;;;;;;5098773;28;20246;-77
2023/08/16 02:49:21;;;;;;;2.30;2.10;;;21.20;99.90;;;;;;5101649;28;20300;-78
2023/08/16 02:51:47;;;;;;;2.70;2.50;;;21.20;99.90;;;;;;5109686;28;20254;-77
2023/08/16 02:54:16;;;;;;;2.75;2.55;;;21.10;99.90;;;;;;5097785;28;20194;-77
2023/08/16 02:56:43;;;;;;;2.28;2.17;;;21.10;99.90;;;;;;5098599;28;20253;-80
2023/08/16 02:59:14;;;;;;;2.40;2.17;;;21.00;99.90;;;;;;5102393;28;20239;-78
2023/08/16 03:01:41;;;;;;;2.40;2.20;;;21.00;99.90;;;;;;5100624;28;20258;-77
2023/08/16 03:04:08;;;;;;;2.38;2.22;;;21.00;99.90;;;;;;5097050;28;20270;-77
2023/08/16 03:06:35;;;;;;;2.97;2.55;;;21.00;99.90;;;;;;5102268;28;20223;-78
2023/08/16 03:09:03;;;;;;;2.55;2.35;;;21.20;99.90;;;;;;5098601;27;20232;-77
2023/08/16 03:11:31;;;;;;;2.50;2.40;;;21.20;99.90;;;;;;5097752;28;20255;-77
2023/08/16 03:13:58;;;;;;;2.40;2.20;;;21.30;99.90;;;;;;5098177;28;20209;-78
2023/08/16 03:16:25;;;;;;;2.10;2.00;;;21.30;99.90;;;;;;5101389;28;20252;-78
2023/08/16 03:18:52;;;;;;;2.13;1.92;;;21.30;99.90;;;;;;5106271;28;20265;-78
2023/08/16 03:21:19;;;;;;;2.42;2.22;;;21.20;99.90;;;;;;5100355;28;20224;-79
2023/08/16 03:23:46;;;;;;;2.40;2.20;;;21.20;99.90;;;;;;5100222;28;20278;-79
2023/08/16 03:26:13;;;;;;;2.20;2.03;;;21.10;99.90;;;;;;5095523;28;20253;-78
2023/08/16 03:28:41;;;;;;;2.10;2.00;;;21.10;99.90;;;;;;5100530;28;20205;-79
2023/08/16 03:31:08;;;;;;;2.50;2.30;;;21.00;99.90;;;;;;5095800;28;20247;-78
2023/08/16 03:33:35;;;;;;;2.28;2.08;;;21.00;99.90;;;;;;5102538;28;20229;-78
2023/08/16 03:36:02;;;;;;;2.28;2.08;;;20.90;99.90;;;;;;5107154;28;21856;-78
2023/08/16 03:38:29;;;;;;;2.25;2.10;;;20.70;99.90;;;;;;5096211;28;20262;-79
2023/08/16 03:40:56;;;;;;;3.70;2.38;;;20.40;99.90;;;;;;5099622;28;20194;-78
2023/08/16 03:43:23;;;;;;;1.95;1.85;;;20.20;99.90;;;;;;5105604;27;20660;-78
2023/08/16 03:45:51;;;;;;;2.33;2.17;;;20.10;99.90;;;;;;5102361;28;20221;-77
2023/08/16 03:48:18;;;;;;;2.28;2.17;;;20.10;99.90;;;;;;5100712;28;20243;-79
2023/08/16 03:50:45;;;;;;;2.00;1.90;;;20.20;99.90;;;;;;5098912;28;20289;-77
2023/08/16 03:53:12;;;;;;;2.28;2.08;;;20.20;99.90;;;;;;5094278;28;20198;-77
2023/08/16 03:55:39;;;;;;;2.30;2.10;;;20.30;99.90;;;;;;5096487;28;20225;-76
2023/08/16 03:58:06;;;;;;;2.25;2.05;;;20.40;99.90;;;;;;5098315;28;20201;-77
2023/08/16 04:00:33;;;;;;;2.10;2.00;;;20.50;99.90;;;;;;5094768;28;20229;-76
2023/08/16 04:03:03;;;;;;;2.40;2.03;;;20.60;99.90;;;;;;5098933;28;20202;-76
2023/08/16 04:05:31;;;;;;;2.13;2.03;;;20.60;99.90;;;;;;5099588;28;20301;-76
2023/08/16 04:07:58;;;;;;;2.08;1.98;;;20.50;99.90;;;;;;5099098;28;23035;-76
2023/08/16 04:10:25;;;;;;;1.70;1.60;;;20.50;99.90;;;;;;5103027;28;20217;-76
2023/08/16 04:12:52;;;;;;;1.80;1.70;;;20.50;99.90;;;;;;5103549;28;20204;-77
2023/08/16 04:15:19;;;;;;;2.30;2.10;;;20.60;99.90;;;;;;5094337;28;20221;-77
2023/08/16 04:17:46;;;;;;;1.90;1.80;;;20.60;99.90;;;;;;5095275;28;20197;-77
2023/08/16 04:20:14;;;;;;;1.67;1.58;;;20.60;99.90;;;;;;5099090;28;20243;-79
2023/08/16 04:22:41;;;;;;;2.25;2.00;;;20.60;99.90;;;;;;5098753;28;20798;-77
2023/08/16 04:25:09;;;;;;;1.73;1.63;;;20.60;99.90;;;;;;5096941;28;20236;-79
2023/08/16 04:27:36;;;;;;;1.77;1.67;;;20.60;99.90;;;;;;5098591;28;20234;-77
2023/08/16 04:30:03;;;;;;;1.90;1.80;;;20.60;99.90;;;;;;5095942;28;20224;-76
2023/08/16 04:32:30;;;;;;;2.17;1.75;;;20.60;99.90;;;;;;5094689;28;20630;-77
2023/08/16 04:34:57;;;;;;;2.17;1.70;;;20.60;99.90;;;;;;5099588;28;20217;-76
2023/08/16 04:37:25;;;;;;;1.75;1.65;;;20.60;99.90;;;;;;5102767;28;20690;-77
2023/08/16 04:39:52;;;;;;;2.03;1.83;;;20.60;99.90;;;;;;5101058;28;20727;-77
2023/08/16 04:42:19;;;;;;;1.85;1.75;;;20.60;99.90;;;;;;5099402;28;20197;-77
2023/08/16 04:44:46;;;;;;;1.90;1.80;;;20.60;99.90;;;;;;5096749;28;20201;-77
2023/08/16 04:47:13;;;;;;;2.50;1.85;;;20.70;99.90;;;;;;5101108;28;20196;-77
2023/08/16 04:49:40;;;;;;;2.03;1.92;;;20.80;99.90;;;;;;5099966;28;20628;-78
2023/08/16 04:52:07;;;;;;;1.92;1.83;;;20.80;99.90;;;;;;5099537;28;20266;-76
2023/08/16 04:54:35;;;;;;;2.00;1.90;;;20.80;99.90;;;;;;5095935;28;20720;-78
2023/08/16 04:57:03;;;;;;;1.90;1.80;;;20.80;99.90;;;;;;5098675;28;20687;-78
2023/08/16 04:59:30;;;;;;;2.53;1.73;;;20.80;99.90;;;;;;5091623;28;20563;-77
2023/08/16 05:01:57;;;;;;;1.75;1.65;;;20.80;99.90;;;;;;5104858;28;20232;-78
2023/08/16 05:04:24;;;;;;;1.92;1.83;;;20.90;99.90;;;;;;5101287;28;20228;-78
2023/08/16 05:06:51;;;;;;;2.00;1.90;;;20.90;99.90;;;;;;5102775;28;20315;-78
2023/08/16 05:09:18;;;;;;;2.00;1.80;;;21.00;99.90;;;;;;5098228;28;20205;-77
2023/08/16 05:11:46;;;;;;;3.05;1.63;;;20.90;99.90;;;;;;5100473;28;20653;-76
2023/08/16 05:14:13;;;;;;;1.77;1.67;;;21.00;99.90;;;;;;5099697;28;20232;-76
2023/08/16 05:16:40;;;;;;;1.60;1.50;;;21.00;99.90;;;;;;5102077;28;20626;-77
2023/08/16 05:19:07;;;;;;;1.90;1.80;;;21.00;99.90;;;;;;5100223;28;20233;-76
2023/08/16 05:21:33;;;;;;;1.63;1.52;;;21.00;99.90;;;;;;5108040;28;20663;-77
2023/08/16 05:24:00;;;;;;;1.92;1.60;;;21.00;99.90;;;;;;5099250;28;20254;-77
2023/08/16 05:26:27;;;;;;;1.95;1.85;;;21.10;99.90;;;;;;5103070;28;20260;-76
2023/08/16 05:28:56;;;;;;;1.80;1.70;;;21.10;99.90;;;;;;5100534;28;20201;-77
2023/08/16 05:31:23;;;;;;;2.95;2.00;;;20.90;99.90;;;;;;5099680;28;20216;-76
2023/08/16 05:33:50;;;;;;;2.55;2.35;;;20.60;99.90;;;;;;5097997;28;20911;-77
2023/08/16 05:36:17;;;;;;;2.25;2.05;;;20.60;99.90;;;;;;5098717;28;20259;-76
2023/08/16 05:38:44;;;;;;;1.83;1.65;;;20.70;99.90;;;;;;5097639;28;20232;-77
2023/08/16 05:41:11;;;;;;;1.98;1.88;;;20.90;99.90;;;;;;5097035;28;20231;-77
2023/08/16 05:43:38;;;;;;;1.90;1.80;;;21.00;99.90;;;;;;5096511;28;20236;-77
2023/08/16 05:46:06;;;;;;;1.88;1.77;;;21.20;99.90;;;;;;5099128;28;20221;-78
2023/08/16 05:48:33;;;;;;;2.95;2.03;;;21.40;99.90;;;;;;5100718;28;20259;-78
2023/08/16 05:51:00;;;;;;;1.88;1.77;;;21.50;99.90;;;;;;5097510;28;20221;-78
2023/08/16 05:53:27;;;;;;;1.70;1.60;;;21.70;99.90;;;;;;5099344;28;20236;-78
2023/08/16 05:55:54;;;;;;;1.70;1.60;;;21.80;99.90;;;;;;5101117;28;20236;-76
2023/08/16 05:58:20;;;;;;;2.60;1.80;;;21.90;99.90;;;;;;5091657;28;20205;-76
2023/08/16 06:00:48;;;;;;;3.22;1.80;;;22.10;99.90;;;;;;5102155;28;20193;-79
2023/08/16 06:03:17;;;;;;;1.75;1.65;;;22.10;99.90;;;;;;5100527;28;20204;-78
2023/08/16 06:05:44;;;;;;;1.80;1.70;;;22.10;99.90;;;;;;5100067;28;20222;-78
2023/08/16 06:08:11;;;;;;;2.25;1.70;;;22.00;99.90;;;;;;5104612;28;20250;-77
2023/08/16 06:10:38;;;;;;;2.30;2.20;;;22.00;99.90;;;;;;5107172;28;20751;-77
2023/08/16 06:13:05;;;;;;;2.10;1.90;;;22.00;99.90;;;;;;5106152;28;20244;-77
2023/08/16 06:15:32;;;;;;;3.15;1.98;;;21.90;99.90;;;;;;5103013;28;20249;-76
2023/08/16 06:17:58;;;;;;;2.25;2.05;;;21.90;99.90;;;;;;5102842;28;20851;-76
2023/08/16 06:20:27;;;;;;;2.35;2.10;;;21.80;99.90;;;;;;5105428;28;20242;-76
2023/08/16 06:22:54;;;;;;;2.25;2.05;;;21.80;99.90;;;;;;5110509;28;20292;-76
2023/08/16 06:25:21;;;;;;;2.00;1.90;;;21.90;99.90;;;;;;5102289;28;20229;-78
2023/08/16 06:27:48;;;;;;;1.73;1.63;;;22.00;99.90;;;;;;5100676;28;20197;-77
2023/08/16 06:30:15;;;;;;;1.85;1.75;;;22.10;99.90;;;;;;5104716;28;20193;-76
2023/08/16 06:32:42;;;;;;;1.85;1.65;;;22.20;99.90;;;;;;5102592;28;20235;-76
2023/08/16 06:35:09;;;;;;;1.90;1.80;;;22.30;99.90;;;;;;5103666;28;20245;-79
2023/08/16 06:37:39;;;;;;;1.90;1.80;;;22.40;99.90;;;;;;5103522;28;20237;-77
2023/08/16 06:40:07;;;;;;;2.67;1.70;;;22.50;99.90;;;;;;5101078;28;20273;-76
2023/08/16 06:42:34;;;;;;;2.50;2.00;;;22.60;99.90;;;;;;5105278;28;20198;-76
2023/08/16 06:45:01;;;;;;;2.00;1.90;;;22.50;99.90;;;;;;5101222;28;20252;-77
2023/08/16 06:47:28;;;;;;;2.08;1.98;;;22.50;99.90;;;;;;5103092;28;20245;-79
2023/08/16 06:49:55;;;;;;;2.25;2.05;;;22.50;99.90;;;;;;5099469;28;20197;-76
2023/08/16 06:52:22;;;;;;;2.17;2.08;;;22.50;99.90;;;;;;5101416;28;20744;-79
2023/08/16 06:54:50;;;;;;;2.60;2.22;;;22.40;99.90;;;;;;5104337;28;20263;-76
2023/08/16 06:57:17;;;;;;;2.47;1.92;;;22.30;99.90;;;;;;5098603;27;20258;-76
2023/08/16 06:59:45;;;;;;;2.00;1.90;;;22.40;99.90;;;;;;5102237;28;20225;-77
2023/08/16 07:02:13;;;;;;;2.53;2.33;;;22.30;99.90;;;;;;5105836;28;20197;-77
2023/08/16 07:04:41;;;;;;;3.63;2.20;;;22.20;99.90;;;;;;5107907;28;20209;-76
2023/08/16 07:07:09;;;;;;;2.60;2.40;;;22.30;99.90;;;;;;5102838;28;20223;-80
2023/08/16 07:09:36;;;;;;;2.03;1.92;;;22.20;99.90;;;;;;5105419;28;20657;-77
2023/08/16 07:12:04;;;;;;;2.30;2.10;;;22.20;99.90;;;;;;5099561;28;20210;-77
2023/08/16 07:14:34;;;;;;;2.47;2.28;;;22.30;99.90;;;;;;5104438;28;20194;-77
2023/08/16 07:17:08;;;;;;;2.92;2.25;;;22.40;99.90;;;;;;5105143;28;20659;-77
2023/08/16 07:19:38;;;;;;;2.45;2.25;;;22.50;99.90;;;;;;5108968;28;20203;-76
2023/08/16 07:22:10;;;;;;;2.50;2.30;;;22.60;99.90;;;;;;5103438;28;20659;-77
2023/08/16 07:27:25;;;;;;;3.70;2.60;;;22.70;99.90;;;;;;5101439;28;20199;-78
2023/08/16 07:30:01;;;;;;;3.95;2.60;;;22.70;99.90;;;;;;5106886;28;20193;-78
2023/08/16 07:32:34;;;;;;;2.65;2.45;;;22.80;99.90;;;;;;5098153;28;20217;-77
2023/08/16 07:35:08;;;;;;;2.63;2.42;;;23.00;99.90;;;;;;5104258;28;20225;-77
2023/08/16 07:37:40;;;;;;;4.10;2.42;;;23.20;99.90;;;;;;5099624;27;20255;-77
2023/08/16 07:40:12;;;;;;;2.70;2.50;;;23.40;99.90;;;;;;5103235;28;20258;-77
2023/08/16 07:42:45;;;;;;;2.90;2.70;;;23.60;99.90;;;;;;5095334;28;20636;-76
2023/08/16 07:45:14;;;;;;;2.97;2.78;;;23.80;99.90;;;;;;5097996;28;20224;-77
2023/08/16 07:56:19;;;;;;;2.80;2.60;;;23.80;99.90;;;;;;5101009;28;20220;-77
2023/08/16 08:05:33;;;;;;;4.25;2.90;;;24.40;99.90;;;;;;5104612;27;20224;-77
2023/08/16 08:11:42;;;;;;;2.90;2.60;;;25.00;99.90;;;;;;5101451;28;20229;-78
2023/08/16 08:14:14;;;;;;;2.63;2.42;;;25.30;99.90;;;;;;5104578;28;20201;-77
2023/08/16 08:16:44;;;;;;;2.78;2.58;;;25.40;99.90;;;;;;5098314;28;20703;-77
2023/08/16 08:19:17;;;;;;;2.65;2.33;;;25.60;99.90;;;;;;5099857;28;20204;-78
2023/08/16 08:25:29;;;;;;;3.60;2.67;;;25.70;99.90;;;;;;5100283;28;20220;-78
2023/08/16 08:27:58;;;;;;;2.60;2.40;;;25.70;99.90;;;;;;5100872;28;20250;-78
2023/08/16 08:30:25;;;;;;;2.50;2.30;;;25.90;99.90;;;;;;5102224;28;20197;-77
2023/08/16 08:32:52;;;;;;;2.83;2.63;;;26.00;99.90;;;;;;5104119;28;20263;-78
2023/08/16 08:35:20;;;;;;;2.65;2.45;;;26.30;99.90;;;;;;5109437;28;20266;-77
2023/08/16 08:37:47;;;;;;;2.13;2.03;;;26.50;99.90;;;;;;5101974;28;20235;-77
2023/08/16 08:40:15;;;;;;;2.60;2.40;;;26.90;99.90;;;;;;5113508;28;20715;-78
2023/08/16 08:42:43;;;;;;;2.35;2.15;;;27.10;99.90;;;;;;5105317;28;20189;-79
2023/08/16 08:45:12;;;;;;;2.60;2.40;;;27.20;99.90;;;;;;5097746;28;20248;-79
2023/08/16 08:47:42;;;;;;;3.17;2.40;;;27.10;99.90;;;;;;5120411;27;21377;-78
2023/08/16 08:50:09;;;;;;;2.72;2.53;;;26.90;99.90;;;;;;5117323;28;20599;-78
2023/08/16 08:52:38;;;;;;;3.00;2.80;;;26.70;99.90;;;;;;5126630;28;20204;-78
2023/08/16 08:55:05;;;;;;;4.70;2.30;;;26.50;99.90;;;;;;5122822;28;20269;-77
2023/08/16 08:57:34;;;;;;;2.40;2.20;;;26.30;99.90;;;;;;5117885;27;20196;-77
2023/08/16 09:00:04;;;;;;;2.63;2.42;;;26.50;99.90;;;;;;5117992;28;20197;-76
2023/08/16 09:02:33;;;;;;;2.45;2.20;;;26.90;99.90;;;;;;5112743;28;20192;-76
2023/08/16 09:05:04;;;;;;;2.58;2.35;;;26.80;99.90;;;;;;5118114;28;20584;-79
2023/08/16 09:07:32;;;;;;;2.38;2.20;;;26.80;99.90;;;;;;5118370;28;20350;-78
2023/08/16 09:10:01;;;;;;;2.80;2.55;;;26.90;99.90;;;;;;5118825;28;20686;-78
2023/08/16 09:12:28;;;;;;;2.40;2.30;;;27.10;99.90;;;;;;5119433;28;20227;-78
2023/08/16 09:14:55;;;;;;;2.70;2.45;;;27.30;99.90;;;;;;5121709;28;20211;-78
2023/08/16 09:17:22;;;;;;;2.63;2.42;;;27.30;99.90;;;;;;5120823;28;20235;-77
2023/08/16 09:19:49;;;;;;;2.35;2.15;;;27.10;99.90;;;;;;5128998;28;20237;-77
2023/08/16 09:22:16;;;;;;;2.95;2.72;;;27.00;99.90;;;;;;5121775;28;20223;-78
2023/08/16 09:24:43;;;;;;;3.90;2.92;;;27.00;99.90;;;;;;5117858;28;20716;-77
2023/08/16 09:27:12;;;;;;;3.03;2.75;;;26.80;99.90;;;;;;5116164;28;20288;-77
2023/08/16 09:29:40;;;;;;;5.30;4.05;;;26.90;99.90;;;;;;5113877;28;20228;-78
2023/08/16 09:32:07;;;;;;;3.30;3.00;;;27.00;99.90;;;;;;5116666;27;20219;-78
2023/08/16 09:34:35;;;;;;;4.20;3.15;;;27.10;99.90;;;;;;5113889;28;20203;-77
2023/08/16 09:37:03;;;;;;;3.67;3.05;;;27.00;99.90;;;;;;5120651;28;20646;-77
2023/08/16 09:39:29;;;;;;;2.85;2.65;;;27.10;99.90;;;;;;5114976;28;20208;-77
2023/08/16 09:41:57;;;;;;;4.38;2.90;;;27.00;99.90;;;;;;5121569;27;20189;-77
2023/08/16 09:44:29;;;;;;;2.85;2.65;;;27.10;99.90;;;;;;5120670;28;20204;-78
2023/08/16 09:46:57;;;;;;;3.00;2.80;;;27.10;99.90;;;;;;5119685;28;20207;-78
2023/08/16 09:49:25;;;;;;;2.88;2.67;;;27.40;99.90;;;;;;5118308;27;20227;-78
2023/08/16 09:51:52;;;;;;;2.30;2.20;;;27.50;99.90;;;;;;5119518;27;20277;-78
2023/08/16 09:54:19;;;;;;;2.72;2.53;;;27.50;99.90;;;;;;5120905;27;20232;-77
2023/08/16 09:56:47;;;;;;;3.33;2.53;;;27.70;99.90;;;;;;5120235;27;20340;-77
2023/08/16 09:59:15;;;;;;;2.92;2.30;;;27.90;99.90;;;;;;5125814;27;20201;-78
2023/08/16 10:01:45;;;;;;;3.10;2.80;;;28.20;99.90;;;;;;5124706;27;20296;-78
2023/08/16 10:04:12;;;;;;;3.00;2.80;;;28.20;99.90;;;;;;5123208;27;20296;-78
2023/08/16 10:06:39;;;;;;;3.63;2.72;;;28.40;99.90;;;;;;5115501;27;20613;-78
2023/08/16 10:09:10;;;;;;;2.65;2.45;;;28.50;99.90;;;;;;5119774;27;20205;-78
2023/08/16 10:11:38;;;;;;;2.50;2.30;;;28.50;99.90;;;;;;5120531;27;20801;-78
2023/08/16 10:14:07;;;;;;;2.70;2.50;;;28.40;99.90;;;;;;5119773;27;20279;-79
2023/08/16 10:16:36;;;;;;;2.90;2.70;;;28.70;99.90;;;;;;5121125;27;20221;-78
2023/08/16 10:19:08;;;;;;;2.55;2.35;;;28.90;99.90;;;;;;5122649;27;20204;-79
2023/08/16 10:21:40;;;;;;;3.42;3.13;;;28.60;99.90;;;;;;5124236;27;20277;-78
2023/08/16 10:24:11;;;;;;;2.58;2.35;;;28.70;99.90;;;;;;5121127;27;20222;-79
2023/08/16 10:26:39;;;;;;;2.95;2.75;;;28.70;99.90;;;;;;5122064;27;20713;-78
2023/08/16 10:29:10;;;;;;;2.60;2.22;;;28.50;99.90;;;;;;5124663;27;20688;-79
2023/08/16 10:31:42;;;;;;;2.70;2.50;;;28.40;99.90;;;;;;5122466;27;20221;-77
2023/08/16 10:34:14;;;;;;;2.50;2.30;;;28.30;99.90;;;;;;5122907;27;20208;-78
2023/08/16 10:36:42;;;;;;;2.60;2.40;;;28.20;99.90;;;;;;5126150;27;20311;-80
2023/08/16 10:39:19;;;;;;;2.35;2.22;;;28.30;99.90;;;;;;5120796;27;20245;-80
2023/08/16 10:41:46;;;;;;;2.92;2.72;;;28.40;99.90;;;;;;5125913;27;20269;-80
2023/08/16 10:44:22;;;;;;;4.00;3.03;;;28.40;99.90;;;;;;5121476;27;20299;-79
2023/08/16 10:46:50;;;;;;;2.95;2.72;;;28.50;99.90;;;;;;5121816;27;20228;-79
2023/08/16 10:49:19;;;;;;;3.03;2.83;;;28.50;99.90;;;;;;5129053;27;20237;-81
2023/08/16 10:51:47;;;;;;;2.83;2.60;;;28.60;99.90;;;;;;5124673;27;20257;-80
2023/08/16 10:54:15;;;;;;;2.67;2.47;;;28.70;99.90;;;;;;5126311;27;20806;-79
2023/08/16 10:56:47;;;;;;;2.80;2.60;;;28.70;99.90;;;;;;5121921;27;20257;-80
2023/08/16 10:59:15;;;;;;;2.55;2.35;;;28.80;99.90;;;;;;5119989;27;20207;-78
2023/08/16 11:01:46;;;;;;;2.65;2.45;;;28.90;99.90;;;;;;5118114;27;20333;-79
2023/08/16 11:04:13;;;;;;;2.45;2.00;;;29.10;99.90;;;;;;5117471;27;20200;-79
2023/08/16 11:06:43;;;;;;;2.83;2.50;;;29.20;99.90;;;;;;5117966;27;20251;-79
2023/08/16 11:09:10;;;;;;;2.45;2.20;;;29.40;99.90;;;;;;5121228;27;20204;-79
2023/08/16 11:11:44;;;;;;;2.75;2.55;;;29.40;99.90;;;;;;5119505;27;20224;-81
2023/08/16 11:14:12;;;;;;;3.03;2.10;;;29.40;99.90;;;;;;5121604;27;20196;-79
2023/08/16 11:16:41;;;;;;;2.38;2.20;;;29.30;99.90;;;;;;5116433;27;20213;-80
2023/08/16 11:19:11;;;;;;;2.00;1.90;;;29.40;99.90;;;;;;5121321;27;20193;-79
2023/08/16 11:21:44;;;;;;;2.05;1.95;;;29.50;99.90;;;;;;5110755;27;20202;-80
2023/08/16 11:24:12;;;;;;;1.85;1.75;;;29.40;99.90;;;;;;5117863;27;20599;-79
2023/08/16 11:26:41;;;;;;;2.40;2.20;;;29.50;99.90;;;;;;5113146;27;20307;-79
2023/08/16 11:29:08;;;;;;;2.65;2.50;;;29.50;99.90;;;;;;5116448;27;20222;-79
2023/08/16 11:31:36;;;;;;;2.00;1.90;;;29.40;99.90;;;;;;5115315;27;20192;-79
2023/08/16 11:34:08;;;;;;;3.28;2.40;;;29.40;99.90;;;;;;5108984;27;20408;-79
2023/08/16 11:36:37;;;;;;;2.50;2.30;;;29.60;99.90;;;;;;5110005;27;20218;-79
2023/08/16 11:39:06;;;;;;;2.47;2.28;;;29.50;99.90;;;;;;5117890;27;20201;-79
2023/08/16 11:41:35;;;;;;;2.03;1.90;;;29.50;99.90;;;;;;5117929;27;20200;-80
2023/08/16 11:44:03;;;;;;;3.08;2.60;;;29.40;99.90;;;;;;5114304;27;20228;-79
2023/08/16 11:46:40;;;;;;;2.05;1.85;;;29.50;99.90;;;;;;5121594;27;20216;-80
2023/08/16 11:49:08;;;;;;;2.92;2.22;;;29.50;99.90;;;;;;5123128;27;20196;-79
2023/08/16 11:51:38;;;;;;;2.40;2.20;;;29.70;99.90;;;;;;5115323;27;20222;-79
2023/08/16 11:54:06;;;;;;;2.55;2.38;;;29.70;99.90;;;;;;5126113;27;20591;-79
2023/08/16 11:56:35;;;;;;;4.57;2.50;;;29.90;99.90;;;;;;5115223;27;20315;-78
2023/08/16 11:59:02;;;;;;;2.80;2.10;;;29.80;99.90;;;;;;5118230;27;20647;-78
2023/08/16 12:01:30;;;;;;;2.58;2.38;;;29.90;99.90;;;;;;5113224;27;20239;-78
2023/08/16 12:04:00;;;;;;;2.42;2.20;;;29.80;99.90;;;;;;5124769;27;20192;-79
2023/08/16 12:06:28;;;;;;;2.40;2.20;;;29.80;99.90;;;;;;5115300;27;20216;-79
2023/08/16 12:08:55;;;;;;;2.20;2.10;;;29.70;99.90;;;;;;5122787;27;20284;-79
2023/08/16 12:11:30;;;;;;;3.58;2.17;;;29.70;99.90;;;;;;5125794;27;20231;-78
2023/08/16 12:14:00;;;;;;;2.22;2.10;;;29.90;99.90;;;;;;5124266;27;20306;-79
2023/08/16 12:16:27;;;;;;;2.97;2.78;;;30.00;99.90;;;;;;5116725;27;20682;-79
2023/08/16 12:18:54;;;;;;;2.72;2.20;;;29.90;99.90;;;;;;5119553;27;20260;-79
2023/08/16 12:21:21;;;;;;;2.20;2.10;;;29.70;99.90;;;;;;5122491;27;20232;-79
2023/08/16 12:23:47;;;;;;;2.40;2.20;;;29.60;99.90;;;;;;5116245;27;20707;-79
2023/08/16 12:26:15;;;;;;;2.50;2.40;;;29.50;99.90;;;;;;5121413;27;20216;-78
2023/08/16 12:28:42;;;;;;;2.72;2.53;;;29.40;99.90;;;;;;5123478;27;20234;-79
2023/08/16 12:31:10;;;;;;;3.45;2.35;;;29.30;99.90;;;;;;5116374;27;20192;-78
2023/08/16 12:33:37;;;;;;;2.42;2.30;;;29.20;99.90;;;;;;5121754;27;20216;-78
2023/08/16 12:36:05;;;;;;;3.00;2.30;;;29.10;99.90;;;;;;5115819;27;20216;-78
2023/08/16 12:38:32;;;;;;;3.50;2.50;;;29.20;99.90;;;;;;5122563;27;20203;-78
2023/08/16 12:40:59;;;;;;;3.50;2.60;;;29.40;99.90;;;;;;5124317;27;20262;-78
2023/08/16 12:43:26;;;;;;;2.63;2.42;;;29.50;99.90;;;;;;5113543;28;20247;-78
2023/08/16 12:45:53;;;;;;;3.47;2.40;;;29.60;99.90;;;;;;5116160;27;20284;-78
2023/08/16 12:48:21;;;;;;;2.95;2.65;;;29.60;99.90;;;;;;5120069;27;20200;-78
2023/08/16 12:50:48;;;;;;;2.95;2.35;;;30.10;99.90;;;;;;5119700;27;20734;-78
2023/08/16 12:53:15;;;;;;;2.25;2.05;;;30.50;99.90;;;;;;5116407;28;20246;-78
2023/08/16 12:55:42;;;;;;;1.98;1.88;;;30.70;99.90;;;;;;5116986;28;20274;-78
2023/08/16 12:58:08;;;;;;;2.22;2.05;;;30.90;99.90;;;;;;5118043;28;20212;-78
2023/08/16 13:00:35;;;;;;;2.13;1.92;;;30.80;99.90;;;;;;5120849;28;20618;-78
2023/08/16 13:03:04;;;;;;;2.35;2.20;;;30.80;99.90;;;;;;5118944;28;20201;-78
2023/08/16 13:05:32;;;;;;;2.00;1.90;;;30.60;99.90;;;;;;5116877;28;20765;-78
2023/08/16 13:07:59;;;;;;;1.92;1.83;;;30.70;99.90;;;;;;5119929;28;20663;-77
2023/08/16 13:10:28;;;;;;;2.03;1.92;;;30.90;99.90;;;;;;5118791;28;20248;-78
2023/08/16 13:12:55;;;;;;;2.40;2.20;;;31.00;99.90;;;;;;5120809;28;20228;-77
2023/08/16 13:15:22;;;;;;;2.33;2.10;;;30.90;99.90;;;;;;5111449;28;20262;-78
2023/08/16 13:17:49;;;;;;;2.55;1.98;;;30.90;99.90;;;;;;5113323;28;20679;-77